Time;durP1;ratioP1;P1;durP2;ratioP2;P2;SDS_P1;SDS_P2;PMS_P1;PMS_P2;Temp;Humidity;BMP_temperature;BMP_pressure;BME280_temperature;BME280_humidity;BME280_pressure;Samples;Min_cycle;Max_cycle;Signal;HPM_P1;HPM_P2
2023/02/09 00:01:20;;;;;;;12.50;8.67;;;4.20;1.00;;;;;;5046585;28;20186;-85
2023/02/09 00:03:48;;;;;;;11.53;7.70;;;4.30;99.90;;;;;;5025264;28;20266;-87
2023/02/09 00:06:17;;;;;;;12.53;7.47;;;4.30;99.90;;;;;;5020334;28;20171;-89
2023/02/09 00:08:45;;;;;;;10.23;7.60;;;4.10;1.00;;;;;;5017328;28;20170;-88
2023/02/09 00:11:18;;;;;;;12.73;8.00;;;4.10;1.00;;;;;;5033983;28;20179;-85
2023/02/09 00:13:43;;;;;;;12.30;8.00;;;3.90;1.00;;;;;;5016885;28;20293;-85
2023/02/09 00:16:10;;;;;;;10.20;7.30;;;3.70;28.50;;;;;;5015673;28;20240;-84
2023/02/09 00:18:35;;;;;;;12.73;7.97;;;3.50;99.90;;;;;;5015982;28;20224;-85
2023/02/09 00:21:05;;;;;;;13.07;7.77;;;3.40;99.90;;;;;;5015187;28;20171;-84
2023/02/09 00:23:34;;;;;;;10.93;7.47;;;3.30;99.90;;;;;;5017119;28;20198;-88
2023/02/09 00:26:04;;;;;;;13.13;7.73;;;3.30;99.90;;;;;;5016079;28;20178;-87
2023/02/09 00:28:31;;;;;;;12.37;7.90;;;3.30;99.90;;;;;;5016814;28;20174;-89
2023/02/09 00:30:57;;;;;;;10.03;7.23;;;3.20;99.90;;;;;;5017340;28;20166;-86
2023/02/09 00:33:23;;;;;;;10.83;7.73;;;3.20;99.90;;;;;;5015769;28;20206;-83
2023/02/09 00:35:49;;;;;;;11.20;7.27;;;3.20;99.90;;;;;;5017988;28;20170;-84
2023/02/09 00:38:15;;;;;;;11.77;7.83;;;3.20;99.90;;;;;;5018113;28;20167;-84
2023/02/09 00:40:42;;;;;;;12.60;7.63;;;3.10;99.90;;;;;;5023231;28;20246;-85
2023/02/09 00:43:10;;;;;;;12.63;7.50;;;3.20;99.90;;;;;;5024927;28;20174;-88
2023/02/09 00:45:36;;;;;;;12.67;7.77;;;3.10;99.90;;;;;;5039986;28;20194;-90
2023/02/09 00:48:02;;;;;;;11.30;6.90;;;3.20;99.90;;;;;;5038944;28;20166;-85
2023/02/09 00:50:30;;;;;;;12.63;7.37;;;3.20;99.90;;;;;;5038669;28;20179;-84
2023/02/09 00:52:58;;;;;;;10.70;7.50;;;3.20;99.90;;;;;;5035860;28;20238;-89
2023/02/09 00:55:25;;;;;;;10.40;7.07;;;3.20;99.90;;;;;;5021582;28;20223;-90
2023/02/09 00:57:57;;;;;;;13.97;7.07;;;3.10;99.90;;;;;;5017892;28;20170;-89
2023/02/09 01:00:22;;;;;;;12.83;7.03;;;3.10;99.90;;;;;;5016906;28;20181;-85
2023/02/09 01:02:48;;;;;;;12.17;7.70;;;3.10;99.90;;;;;;5015912;28;20206;-88
2023/02/09 01:05:14;;;;;;;16.30;7.80;;;3.30;99.90;;;;;;5043424;28;20421;-85
2023/02/09 01:07:39;;;;;;;11.00;7.23;;;3.20;99.90;;;;;;5037868;28;20178;-81
2023/02/09 01:10:06;;;;;;;11.87;7.33;;;3.40;99.90;;;;;;5050563;28;20178;-88
2023/02/09 01:12:32;;;;;;;12.13;7.33;;;3.30;99.90;;;;;;5026377;28;20217;-88
2023/02/09 01:15:00;;;;;;;11.20;6.73;;;3.30;99.90;;;;;;5023406;28;20167;-87
2023/02/09 01:17:27;;;;;;;9.83;7.10;;;3.30;99.90;;;;;;5016859;28;20527;-88
2023/02/09 01:19:54;;;;;;;12.63;7.77;;;3.30;99.90;;;;;;5015859;28;20202;-86
2023/02/09 01:22:20;;;;;;;13.40;8.10;;;3.50;99.90;;;;;;5026339;28;20182;-83
2023/02/09 01:24:47;;;;;;;14.80;8.83;;;3.60;99.90;;;;;;5037315;28;20166;-83
2023/02/09 01:27:13;;;;;;;12.63;7.57;;;3.80;99.90;;;;;;5036277;28;20216;-85
2023/02/09 01:29:45;;;;;;;11.83;7.93;;;3.90;99.90;;;;;;5028325;28;20174;-88
2023/02/09 01:32:10;;;;;;;11.67;8.10;;;3.60;99.90;;;;;;5017292;28;20194;-90
2023/02/09 01:34:37;;;;;;;10.97;7.80;;;3.50;99.90;;;;;;5026716;28;20179;-84
2023/02/09 01:37:03;;;;;;;13.30;8.07;;;3.30;99.90;;;;;;5029517;28;20217;-88
2023/02/09 01:39:31;;;;;;;12.97;8.40;;;3.30;99.90;;;;;;5018231;28;20182;-87
2023/02/09 01:41:56;;;;;;;12.00;8.33;;;3.30;1.00;;;;;;5015039;28;20634;-85
2023/02/09 01:44:31;;;;;;;11.90;7.47;;;3.10;1.00;;;;;;5015123;28;20175;-88
2023/02/09 01:46:56;;;;;;;13.07;8.10;;;3.10;1.00;;;;;;5014993;28;20172;-89
2023/02/09 01:49:26;;;;;;;12.07;7.90;;;3.00;1.00;;;;;;5031593;28;20178;-89
2023/02/09 01:52:10;;;;;;;11.00;7.97;;;3.00;1.00;;;;;;5016217;28;20268;-89
2023/02/09 01:54:49;;;;;;;11.20;7.43;;;2.90;1.00;;;;;;5031798;28;20181;-89
2023/02/09 01:57:38;;;;;;;14.20;7.57;;;3.00;1.00;;;;;;5033825;28;20593;-88
2023/02/09 02:00:12;;;;;;;12.00;7.50;;;3.00;1.00;;;;;;5020891;28;20174;-89
2023/02/09 02:02:39;;;;;;;11.90;7.03;;;3.00;1.00;;;;;;5018625;28;20204;-90
2023/02/09 02:05:06;;;;;;;9.63;6.83;;;2.90;1.00;;;;;;5020865;28;20170;-89
2023/02/09 02:07:43;;;;;;;9.43;7.03;;;2.90;1.00;;;;;;5019934;28;20258;-89
2023/02/09 02:10:09;;;;;;;9.87;6.80;;;2.90;1.00;;;;;;5018349;28;20216;-89
2023/02/09 02:12:36;;;;;;;10.80;7.73;;;2.90;1.00;;;;;;5034030;28;20206;-89
2023/02/09 02:15:02;;;;;;;13.47;6.97;;;2.90;1.00;;;;;;5018997;28;20228;-89
2023/02/09 02:17:33;;;;;;;9.80;6.83;;;2.80;1.00;;;;;;5018149;28;20257;-89
2023/02/09 02:20:19;;;;;;;16.47;7.63;;;2.80;1.00;;;;;;5018180;28;20182;-88
2023/02/09 02:23:03;;;;;;;11.93;6.97;;;2.70;1.00;;;;;;5018701;28;20182;-89
2023/02/09 02:25:49;;;;;;;9.90;6.30;;;2.60;1.00;;;;;;5018113;28;20194;-89
2023/02/09 02:28:33;;;;;;;10.33;6.27;;;2.60;1.00;;;;;;5018177;28;20185;-89
2023/02/09 02:31:24;;;;;;;10.53;6.30;;;2.50;1.00;;;;;;5019282;28;20174;-89
2023/02/09 02:34:29;;;;;;;11.33;6.70;;;2.50;1.00;;;;;;5017733;28;20237;-88
2023/02/09 02:37:10;;;;;;;11.33;6.30;;;2.70;1.00;;;;;;5005996;28;20194;-89
2023/02/09 02:39:54;;;;;;;10.40;6.43;;;2.60;1.00;;;;;;5018420;28;20185;-88
2023/02/09 02:42:48;;;;;;;9.43;7.07;;;2.80;1.00;;;;;;5017606;28;20174;-89
2023/02/09 02:45:34;;;;;;;12.80;7.87;;;2.80;1.00;;;;;;5030732;28;20177;-89
2023/02/09 02:48:23;;;;;;;11.83;7.20;;;2.50;1.00;;;;;;5037401;28;20237;-88
2023/02/09 02:51:03;;;;;;;9.93;6.70;;;2.40;1.00;;;;;;5039918;28;20178;-88
2023/02/09 02:53:32;;;;;;;12.27;6.87;;;2.20;1.00;;;;;;5039657;28;20217;-87
2023/02/09 02:56:24;;;;;;;13.33;7.00;;;2.20;1.00;;;;;;5040854;28;20268;-88
2023/02/09 02:58:54;;;;;;;10.53;6.80;;;2.20;1.00;;;;;;5047982;28;20245;-85
2023/02/09 03:01:24;;;;;;;12.53;6.30;;;2.20;1.00;;;;;;5059417;28;20180;-84
2023/02/09 03:04:06;;;;;;;10.03;6.67;;;2.30;1.00;;;;;;5059412;28;20156;-83
2023/02/09 03:06:35;;;;;;;10.30;6.93;;;2.40;1.00;;;;;;5060475;28;20179;-82
2023/02/09 03:09:12;;;;;;;10.90;6.70;;;2.40;1.00;;;;;;5058254;28;20180;-82
2023/02/09 03:12:07;;;;;;;11.13;6.70;;;2.50;1.00;;;;;;5054883;28;20192;-88
2023/02/09 03:15:00;;;;;;;13.47;7.80;;;2.60;1.00;;;;;;5040908;28;20154;-86
2023/02/09 03:17:39;;;;;;;10.93;7.20;;;2.50;1.00;;;;;;5045085;28;20650;-88
2023/02/09 03:20:25;;;;;;;9.90;6.37;;;2.60;1.00;;;;;;5047186;28;20179;-89
2023/02/09 03:22:57;;;;;;;10.70;6.87;;;2.60;1.00;;;;;;5058470;28;20241;-88
2023/02/09 03:25:33;;;;;;;10.30;6.87;;;2.40;1.00;;;;;;5046641;28;20181;-84
2023/02/09 03:28:06;;;;;;;9.40;7.03;;;2.50;1.00;;;;;;5039014;28;20272;-86
2023/02/09 03:30:33;;;;;;;11.77;7.27;;;2.40;1.00;;;;;;5040549;28;20170;-88
2023/02/09 03:32:59;;;;;;;9.93;6.97;;;2.40;1.00;;;;;;5059394;28;20239;-83
2023/02/09 03:35:36;;;;;;;13.63;7.33;;;2.60;1.00;;;;;;5056240;28;20208;-80
2023/02/09 03:38:06;;;;;;;10.40;7.03;;;2.70;1.00;;;;;;5044069;28;20177;-87
2023/02/09 03:40:32;;;;;;;12.10;7.30;;;2.50;1.00;;;;;;5041492;28;20221;-88
2023/02/09 03:42:58;;;;;;;11.80;7.63;;;2.40;1.00;;;;;;5044939;28;20170;-87
2023/02/09 03:45:25;;;;;;;9.17;7.30;;;2.70;1.00;;;;;;5041623;28;20249;-88
2023/02/09 03:47:50;;;;;;;10.03;7.10;;;2.50;1.00;;;;;;5047345;28;20177;-84
2023/02/09 03:50:16;;;;;;;10.83;7.00;;;2.60;1.00;;;;;;5059294;28;20181;-83
2023/02/09 03:52:42;;;;;;;11.10;7.03;;;2.70;1.00;;;;;;5059446;28;20205;-85
2023/02/09 03:55:08;;;;;;;11.37;6.90;;;2.80;1.00;;;;;;5055371;28;20200;-82
2023/02/09 03:57:38;;;;;;;10.40;6.77;;;2.40;1.00;;;;;;5060076;28;20170;-83
2023/02/09 04:00:05;;;;;;;10.37;7.30;;;2.20;1.00;;;;;;5059483;28;20181;-88
2023/02/09 04:02:31;;;;;;;12.93;7.50;;;2.20;1.00;;;;;;5059475;28;20221;-84
2023/02/09 04:04:56;;;;;;;11.80;7.23;;;2.40;1.00;;;;;;5059466;28;20240;-85
2023/02/09 04:07:25;;;;;;;10.27;6.63;;;2.50;1.00;;;;;;5056967;28;20162;-82
2023/02/09 04:09:52;;;;;;;9.57;6.50;;;2.20;1.00;;;;;;5057028;28;20200;-82
2023/02/09 04:12:20;;;;;;;12.20;7.23;;;2.20;1.00;;;;;;5045557;28;20249;-88
2023/02/09 04:14:49;;;;;;;11.67;7.37;;;2.10;1.00;;;;;;5038272;28;20189;-86
2023/02/09 04:17:15;;;;;;;8.43;6.40;;;2.10;1.00;;;;;;5041570;28;20165;-87
2023/02/09 04:19:40;;;;;;;10.93;7.10;;;2.00;1.00;;;;;;5040298;28;20549;-87
2023/02/09 04:22:07;;;;;;;12.57;7.17;;;2.20;1.00;;;;;;5037804;28;20220;-87
2023/02/09 04:24:33;;;;;;;11.50;6.37;;;2.10;1.00;;;;;;5035075;28;20178;-88
2023/02/09 04:26:59;;;;;;;9.57;7.10;;;2.00;1.00;;;;;;5035672;28;20220;-86
2023/02/09 04:29:24;;;;;;;13.30;6.83;;;2.00;1.00;;;;;;5035515;28;20185;-89
2023/02/09 04:31:50;;;;;;;11.60;7.13;;;2.00;1.00;;;;;;5051811;28;20224;-88
2023/02/09 04:34:16;;;;;;;12.73;7.30;;;1.90;1.00;;;;;;5033807;28;20213;-89
2023/02/09 04:36:42;;;;;;;10.30;6.53;;;1.80;1.00;;;;;;5035399;28;20182;-88
2023/02/09 04:39:07;;;;;;;11.77;6.60;;;1.80;1.00;;;;;;5035929;28;20177;-89
2023/02/09 04:41:34;;;;;;;14.60;7.17;;;1.80;1.00;;;;;;5034691;28;20653;-89
2023/02/09 04:44:00;;;;;;;9.67;6.93;;;1.80;1.00;;;;;;5045104;28;20154;-86
2023/02/09 04:46:25;;;;;;;11.80;8.53;;;1.70;1.00;;;;;;5038783;28;20185;-87
2023/02/09 04:48:51;;;;;;;10.10;6.70;;;1.80;1.00;;;;;;5036702;28;20194;-88
2023/02/09 04:51:17;;;;;;;10.80;7.00;;;1.90;1.00;;;;;;5036828;28;20170;-89
2023/02/09 04:53:42;;;;;;;11.27;6.93;;;1.70;1.00;;;;;;5048920;28;20689;-89
2023/02/09 04:56:12;;;;;;;10.83;7.07;;;1.70;1.00;;;;;;5037748;28;20205;-90
2023/02/09 05:01:23;;;;;;;10.40;6.40;;;1.90;1.00;;;;;;5037292;28;20191;-87
2023/02/09 05:03:50;;;;;;;11.93;7.50;;;2.00;1.00;;;;;;5036883;28;20180;-89
2023/02/09 05:06:18;;;;;;;10.07;7.43;;;2.10;1.00;;;;;;5047817;28;20189;-87
2023/02/09 05:08:44;;;;;;;10.40;7.03;;;2.10;1.00;;;;;;5040317;28;20173;-88
2023/02/09 05:11:10;;;;;;;11.77;6.60;;;1.90;1.00;;;;;;5034144;28;20220;-89
2023/02/09 05:13:36;;;;;;;12.53;7.37;;;2.00;1.00;;;;;;5035255;28;20263;-88
2023/02/09 05:16:06;;;;;;;11.80;7.60;;;1.90;1.00;;;;;;5042423;28;20185;-83
2023/02/09 05:18:32;;;;;;;10.90;7.47;;;1.80;1.00;;;;;;5057217;28;20176;-88
2023/02/09 05:21:19;;;;;;;12.53;7.03;;;1.70;1.00;;;;;;5049137;28;20173;-88
2023/02/09 05:24:01;;;;;;;12.10;7.13;;;1.60;1.00;;;;;;5036752;28;20184;-87
2023/02/09 05:26:27;;;;;;;11.73;7.43;;;1.70;1.00;;;;;;5034791;28;20170;-89
2023/02/09 05:28:53;;;;;;;13.43;7.67;;;1.80;1.00;;;;;;5035380;28;20649;-90
2023/02/09 05:31:20;;;;;;;13.23;7.60;;;2.00;1.00;;;;;;5047709;28;20186;-90
2023/02/09 05:33:45;;;;;;;11.37;7.07;;;1.90;1.00;;;;;;5051193;28;20213;-86
2023/02/09 05:36:12;;;;;;;14.57;7.77;;;1.80;1.00;;;;;;5047684;28;20284;-82
2023/02/09 05:38:39;;;;;;;10.67;7.27;;;1.80;1.00;;;;;;5040068;28;20166;-83
2023/02/09 05:41:06;;;;;;;10.97;7.30;;;1.70;1.00;;;;;;5035375;28;20197;-82
2023/02/09 05:43:32;;;;;;;12.20;7.70;;;1.80;1.00;;;;;;5035327;28;20201;-82
2023/02/09 05:45:58;;;;;;;11.10;7.33;;;1.80;1.00;;;;;;5035766;28;20551;-84
2023/02/09 05:48:24;;;;;;;11.87;8.10;;;1.90;1.00;;;;;;5035206;28;20174;-88
2023/02/09 05:50:49;;;;;;;11.37;7.70;;;2.30;1.00;;;;;;5044283;28;20161;-88
2023/02/09 05:53:15;;;;;;;12.63;7.50;;;2.30;1.00;;;;;;5056888;28;20241;-85
2023/02/09 05:55:42;;;;;;;10.97;8.10;;;2.00;1.00;;;;;;5045646;28;20166;-88
2023/02/09 05:58:11;;;;;;;12.93;8.77;;;2.10;1.00;;;;;;5017478;28;20568;-88
2023/02/09 06:00:36;;;;;;;13.70;7.37;;;2.00;1.00;;;;;;5036288;28;20208;-88
2023/02/09 06:03:02;;;;;;;11.03;7.40;;;1.80;1.00;;;;;;5041316;28;20181;-88
2023/02/09 06:05:28;;;;;;;11.67;7.87;;;1.70;1.00;;;;;;5041996;28;20178;-88
2023/02/09 06:07:55;;;;;;;14.00;7.60;;;1.70;1.00;;;;;;5056603;28;20281;-81
2023/02/09 06:10:21;;;;;;;14.73;8.07;;;1.60;1.00;;;;;;5055199;28;20170;-81
2023/02/09 06:12:47;;;;;;;13.93;8.43;;;1.60;1.00;;;;;;5045544;28;20205;-86
2023/02/09 06:15:15;;;;;;;13.90;9.00;;;1.70;1.00;;;;;;5046045;28;20173;-82
2023/02/09 06:17:47;;;;;;;12.70;7.70;;;1.80;1.00;;;;;;5036934;28;20196;-82
2023/02/09 06:20:13;;;;;;;13.87;8.17;;;1.90;1.00;;;;;;5033493;28;20173;-82
2023/02/09 06:22:38;;;;;;;11.93;7.90;;;1.90;1.00;;;;;;5032438;28;20184;-85
2023/02/09 06:25:06;;;;;;;12.57;8.47;;;1.70;1.00;;;;;;5032984;28;20177;-83
2023/02/09 06:27:32;;;;;;;15.27;8.47;;;1.60;1.00;;;;;;5034369;28;20323;-85
2023/02/09 06:29:58;;;;;;;15.87;8.60;;;1.80;1.00;;;;;;5033500;28;20614;-85
2023/02/09 06:32:23;;;;;;;12.53;8.77;;;2.00;1.00;;;;;;5032467;28;20236;-86
2023/02/09 06:34:50;;;;;;;19.50;8.60;;;1.90;1.00;;;;;;5033175;28;20190;-85
2023/02/09 06:37:16;;;;;;;18.23;8.37;;;1.90;1.00;;;;;;5037092;28;20174;-84
2023/02/09 06:39:42;;;;;;;13.93;8.07;;;1.60;1.00;;;;;;5034758;28;20627;-87
2023/02/09 06:42:53;;;;;;;11.70;7.27;;;1.60;1.00;;;;;;5020622;28;20171;-84
2023/02/09 06:45:18;;;;;;;14.43;8.50;;;1.70;1.00;;;;;;5026944;28;20269;-86
2023/02/09 06:47:45;;;;;;;16.27;8.70;;;1.70;1.00;;;;;;5026176;28;20197;-88
2023/02/09 06:50:13;;;;;;;15.40;8.87;;;1.80;1.00;;;;;;5039952;28;20165;-81
2023/02/09 06:52:38;;;;;;;16.00;8.90;;;2.00;1.00;;;;;;5047003;28;20259;-82
2023/02/09 06:55:05;;;;;;;16.13;8.53;;;2.20;1.00;;;;;;5044231;28;20571;-84
2023/02/09 06:57:33;;;;;;;15.90;8.57;;;2.20;1.00;;;;;;5038769;28;20253;-83
2023/02/09 07:00:01;;;;;;;12.97;8.10;;;2.20;1.00;;;;;;5037496;28;20323;-81
2023/02/09 07:02:26;;;;;;;13.40;8.83;;;2.00;1.00;;;;;;5037900;28;20224;-82
2023/02/09 07:04:52;;;;;;;16.07;9.87;;;2.00;1.00;;;;;;5035804;28;20279;-80
2023/02/09 07:07:18;;;;;;;14.70;8.37;;;2.20;1.00;;;;;;5036170;28;20700;-81
2023/02/09 07:09:44;;;;;;;14.33;9.40;;;2.10;1.00;;;;;;5036763;28;20253;-81
2023/02/09 07:12:10;;;;;;;13.70;9.00;;;2.00;1.00;;;;;;5036785;28;20256;-82
2023/02/09 07:14:35;;;;;;;12.93;8.70;;;2.00;1.00;;;;;;5025102;28;20973;-87
2023/02/09 07:17:01;;;;;;;12.40;7.93;;;2.10;1.00;;;;;;5032225;28;20233;-84
2023/02/09 07:19:27;;;;;;;15.57;9.60;;;2.00;1.00;;;;;;5041759;28;20208;-82
2023/02/09 07:21:52;;;;;;;12.97;8.40;;;2.10;1.00;;;;;;5049612;28;20181;-82
2023/02/09 07:24:20;;;;;;;14.40;8.63;;;1.90;1.00;;;;;;5040772;28;20218;-81
2023/02/09 07:26:47;;;;;;;12.87;9.07;;;1.80;1.00;;;;;;5036523;28;20189;-81
2023/02/09 07:29:13;;;;;;;15.17;9.00;;;1.90;1.00;;;;;;5044101;28;20177;-82
2023/02/09 07:31:41;;;;;;;17.30;8.63;;;1.80;1.00;;;;;;5018374;28;20519;-84
2023/02/09 07:34:06;;;;;;;13.87;8.97;;;1.80;1.00;;;;;;5014957;28;20729;-86
2023/02/09 07:36:32;;;;;;;13.47;8.80;;;1.80;1.00;;;;;;5019024;28;20198;-83
2023/02/09 07:38:58;;;;;;;16.23;8.90;;;1.80;1.00;;;;;;5022978;28;20247;-82
2023/02/09 07:41:24;;;;;;;15.87;9.10;;;1.80;1.00;;;;;;5040768;28;20170;-81
2023/02/09 07:43:51;;;;;;;14.83;9.63;;;1.90;1.00;;;;;;5038447;28;20182;-84
2023/02/09 07:46:21;;;;;;;14.67;8.87;;;1.90;1.00;;;;;;5032598;28;20184;-88
2023/02/09 07:48:50;;;;;;;14.83;9.17;;;1.90;1.00;;;;;;5029962;28;20252;-86
2023/02/09 07:51:24;;;;;;;17.07;9.10;;;1.90;1.00;;;;;;5020965;28;20165;-85
2023/02/09 07:53:52;;;;;;;19.47;9.77;;;1.90;1.00;;;;;;5018109;28;20225;-83
2023/02/09 07:56:17;;;;;;;19.90;10.20;;;2.00;1.00;;;;;;5029698;28;20175;-83
2023/02/09 07:58:44;;;;;;;23.40;9.47;;;2.00;1.00;;;;;;5026229;28;20276;-85
2023/02/09 08:01:11;;;;;;;20.23;9.53;;;2.00;1.00;;;;;;5028956;28;20186;-85
2023/02/09 08:03:39;;;;;;;17.30;9.50;;;2.20;1.00;;;;;;5028171;28;20181;-80
2023/02/09 08:06:32;;;;;;;18.93;9.67;;;2.10;1.00;;;;;;5023813;28;20210;-88
2023/02/09 08:09:01;;;;;;;20.53;10.00;;;2.10;1.00;;;;;;5026949;28;20220;-82
2023/02/09 08:11:32;;;;;;;18.20;9.30;;;2.00;1.00;;;;;;5028515;28;20176;-82
2023/02/09 08:14:01;;;;;;;19.00;9.70;;;2.00;1.00;;;;;;5043353;28;20224;-82
2023/02/09 08:16:32;;;;;;;24.23;9.07;;;2.10;1.00;;;;;;5045969;28;20162;-83
2023/02/09 08:19:02;;;;;;;14.50;9.13;;;2.10;1.00;;;;;;5063428;28;20176;-85
2023/02/09 08:21:37;;;;;;;16.07;9.00;;;2.10;1.00;;;;;;5049755;28;20225;-83
2023/02/09 08:24:04;;;;;;;13.23;10.07;;;2.20;1.00;;;;;;5041628;28;20178;-83
2023/02/09 08:26:30;;;;;;;19.07;10.00;;;2.20;1.00;;;;;;5045868;28;20201;-85
2023/02/09 08:28:58;;;;;;;15.20;9.80;;;2.20;1.00;;;;;;5050676;28;20165;-85
2023/02/09 08:31:25;;;;;;;23.63;10.10;;;2.20;1.00;;;;;;5055365;28;20173;-82
2023/02/09 08:34:13;;;;;;;16.10;10.33;;;2.20;1.00;;;;;;5057670;28;20209;-82
2023/02/09 08:36:40;;;;;;;17.83;9.93;;;2.20;1.00;;;;;;5047442;28;20162;-86
2023/02/09 08:39:09;;;;;;;19.07;9.87;;;2.30;1.00;;;;;;5017959;28;20221;-85
2023/02/09 08:41:34;;;;;;;16.70;10.03;;;2.40;1.00;;;;;;5016302;28;20619;-85
2023/02/09 08:44:00;;;;;;;18.50;10.43;;;2.50;1.00;;;;;;5029174;28;20174;-81
2023/02/09 08:46:26;;;;;;;17.73;9.80;;;2.50;1.00;;;;;;5020512;28;20639;-83
2023/02/09 08:48:52;;;;;;;16.83;10.20;;;2.50;1.00;;;;;;5025105;28;20673;-85
2023/02/09 08:51:18;;;;;;;22.23;9.50;;;2.50;1.00;;;;;;5034404;28;20276;-84
2023/02/09 08:53:50;;;;;;;15.17;9.23;;;2.40;1.00;;;;;;5027864;28;20206;-85
2023/02/09 08:56:21;;;;;;;21.00;10.40;;;2.50;1.00;;;;;;5021956;28;20189;-86
2023/02/09 08:58:48;;;;;;;21.60;10.83;;;2.60;1.00;;;;;;5017485;28;20201;-85
2023/02/09 09:01:14;;;;;;;17.47;11.80;;;2.60;1.00;;;;;;5017414;28;20182;-83
2023/02/09 09:03:41;;;;;;;17.30;10.03;;;2.60;1.00;;;;;;5033753;28;20193;-85
2023/02/09 09:06:08;;;;;;;14.93;9.33;;;2.80;1.00;;;;;;5016077;28;20265;-85
2023/02/09 09:08:35;;;;;;;16.33;10.53;;;2.90;1.00;;;;;;5018614;28;20178;-87
2023/02/09 09:11:01;;;;;;;19.60;10.50;;;2.90;1.00;;;;;;5016019;28;20257;-87
2023/02/09 09:13:27;;;;;;;20.33;10.40;;;3.10;1.00;;;;;;5018254;28;20292;-87
2023/02/09 09:15:54;;;;;;;16.27;9.67;;;3.20;1.00;;;;;;5017681;28;20638;-87
2023/02/09 09:18:23;;;;;;;17.20;10.50;;;3.30;1.00;;;;;;5018929;28;20175;-86
2023/02/09 09:20:54;;;;;;;21.43;10.57;;;3.40;1.00;;;;;;5041266;28;20225;-85
2023/02/09 09:23:21;;;;;;;26.37;10.23;;;3.70;1.00;;;;;;5049263;28;20173;-86
2023/02/09 09:26:09;;;;;;;18.17;9.47;;;3.80;1.00;;;;;;5048025;28;20272;-88
2023/02/09 09:28:37;;;;;;;16.30;10.30;;;3.60;1.00;;;;;;5040684;28;20180;-90
2023/02/09 09:31:11;;;;;;;15.50;9.97;;;3.60;1.00;;;;;;5040202;28;20170;-88
2023/02/09 09:33:37;;;;;;;17.23;10.50;;;3.60;1.00;;;;;;5040313;28;20204;-88
2023/02/09 09:36:06;;;;;;;19.13;10.23;;;3.70;1.00;;;;;;5040197;28;20176;-86
2023/02/09 09:38:37;;;;;;;17.77;9.93;;;3.90;1.00;;;;;;5041912;28;20212;-82
2023/02/09 09:41:15;;;;;;;18.33;9.93;;;4.00;1.00;;;;;;5037139;28;20170;-80
2023/02/09 09:43:44;;;;;;;16.13;10.23;;;4.00;1.00;;;;;;5033788;28;20174;-85
2023/02/09 09:46:34;;;;;;;13.03;9.10;;;4.10;1.00;;;;;;5009844;28;20186;-85
2023/02/09 09:49:00;;;;;;;16.87;10.33;;;4.20;1.00;;;;;;5020128;28;20174;-86
2023/02/09 09:51:46;;;;;;;20.97;9.87;;;4.10;1.00;;;;;;5016561;28;20202;-86
2023/02/09 09:54:22;;;;;;;21.87;10.33;;;4.10;1.00;;;;;;5017743;28;20796;-85
2023/02/09 09:56:49;;;;;;;15.20;9.47;;;4.30;1.00;;;;;;5026782;28;20181;-84
2023/02/09 09:59:28;;;;;;;16.53;11.77;;;4.30;1.00;;;;;;5033578;28;20178;-88
2023/02/09 10:02:02;;;;;;;23.07;16.97;;;4.20;1.00;;;;;;5028223;28;20189;-86
2023/02/09 10:04:28;;;;;;;18.20;14.57;;;4.30;1.00;;;;;;5020764;28;20223;-87
2023/02/09 10:07:12;;;;;;;15.33;10.80;;;4.40;1.00;;;;;;5040748;28;20241;-85
2023/02/09 10:09:47;;;;;;;14.87;10.43;;;4.50;1.00;;;;;;5021687;28;20163;-87
2023/02/09 10:12:38;;;;;;;12.87;9.87;;;4.50;1.00;;;;;;5022139;28;20196;-84
2023/02/09 10:15:26;;;;;;;15.53;9.80;;;4.50;1.00;;;;;;5021151;28;20205;-85
2023/02/09 10:17:54;;;;;;;14.20;10.13;;;4.70;1.00;;;;;;5020540;28;20174;-84
2023/02/09 10:20:47;;;;;;;15.27;9.73;;;4.50;1.00;;;;;;5035659;28;20173;-79
2023/02/09 10:23:23;;;;;;;15.57;9.77;;;4.60;1.00;;;;;;5046597;28;20185;-85
2023/02/09 10:26:01;;;;;;;16.83;10.17;;;4.60;1.00;;;;;;5038895;28;20204;-84
2023/02/09 10:28:30;;;;;;;15.40;10.20;;;4.70;1.00;;;;;;5041526;28;20174;-84
2023/02/09 10:30:59;;;;;;;16.37;10.00;;;4.70;1.00;;;;;;5038769;28;20181;-83
2023/02/09 10:33:27;;;;;;;15.13;10.27;;;4.80;1.00;;;;;;5048434;28;20232;-82
2023/02/09 10:35:57;;;;;;;17.47;10.97;;;5.10;1.00;;;;;;5049215;28;20188;-82
2023/02/09 10:38:26;;;;;;;15.53;11.43;;;5.10;1.00;;;;;;5055828;28;20173;-82
2023/02/09 10:40:53;;;;;;;19.33;11.67;;;5.00;1.00;;;;;;5057010;28;20185;-87
2023/02/09 10:43:31;;;;;;;15.53;10.67;;;5.00;1.00;;;;;;5046015;28;20173;-87
2023/02/09 10:46:18;;;;;;;16.67;11.20;;;5.00;1.00;;;;;;5039666;28;20154;-86
2023/02/09 10:48:47;;;;;;;16.47;10.80;;;5.20;1.00;;;;;;5040415;28;20158;-86
2023/02/09 10:51:28;;;;;;;15.07;10.40;;;5.30;1.00;;;;;;5042502;28;20201;-84
2023/02/09 10:53:57;;;;;;;16.97;10.77;;;5.50;1.00;;;;;;5056404;28;20213;-84
2023/02/09 10:56:48;;;;;;;18.27;10.60;;;5.60;1.00;;;;;;5058558;28;20196;-81
2023/02/09 10:59:24;;;;;;;21.47;11.30;;;5.70;99.90;;;;;;5045159;28;20541;-87
2023/02/09 11:01:56;;;;;;;17.23;9.60;;;5.50;1.00;;;;;;5036619;28;20186;-86
2023/02/09 11:04:28;;;;;;;14.97;9.97;;;5.50;1.00;;;;;;5017621;28;20200;-85
2023/02/09 11:06:59;;;;;;;17.23;10.47;;;5.50;1.00;;;;;;5020062;28;20228;-87
2023/02/09 11:09:43;;;;;;;16.73;10.67;;;5.50;1.00;;;;;;5033937;28;20177;-86
2023/02/09 11:12:13;;;;;;;17.93;10.73;;;5.50;1.00;;;;;;5038699;28;20181;-87
2023/02/09 11:14:41;;;;;;;17.00;10.93;;;5.70;1.00;;;;;;5036643;28;20177;-83
2023/02/09 11:17:29;;;;;;;15.90;10.33;;;5.70;1.00;;;;;;5036919;28;20166;-83
2023/02/09 11:20:12;;;;;;;15.93;10.50;;;5.70;1.00;;;;;;5034818;28;20170;-82
2023/02/09 11:22:50;;;;;;;15.47;10.50;;;5.80;1.00;;;;;;5019173;28;20170;-82
2023/02/09 11:25:22;;;;;;;16.00;11.17;;;5.90;1.00;;;;;;5018949;28;20174;-86
2023/02/09 11:27:56;;;;;;;16.37;10.87;;;6.00;1.00;;;;;;5022187;28;20166;-85
2023/02/09 11:30:27;;;;;;;17.83;11.53;;;6.20;99.90;;;;;;5020408;28;20183;-87
2023/02/09 11:33:34;;;;;;;15.97;11.00;;;6.10;99.90;;;;;;5018128;28;20205;-86
2023/02/09 11:36:19;;;;;;;16.37;11.40;;;6.20;99.90;;;;;;5038734;28;20646;-85
2023/02/09 11:38:57;;;;;;;16.90;10.73;;;6.20;1.00;;;;;;5037771;28;20208;-86
2023/02/09 11:44:43;;;;;;;14.97;11.27;;;6.10;1.00;;;;;;5025458;28;20181;-86
2023/02/09 11:47:18;;;;;;;22.57;12.63;;;6.20;1.00;;;;;;5045670;28;20195;-82
2023/02/09 11:49:55;;;;;;;21.00;12.73;;;6.30;1.00;;;;;;5053331;28;20958;-86
2023/02/09 11:52:50;;;;;;;18.83;12.90;;;6.50;1.00;;;;;;5042152;28;20173;-86
2023/02/09 11:55:30;;;;;;;20.93;12.27;;;6.40;1.00;;;;;;5017988;28;20174;-85
2023/02/09 11:58:18;;;;;;;16.27;12.60;;;6.40;1.00;;;;;;5018308;28;20186;-87
2023/02/09 12:00:51;;;;;;;15.37;11.30;;;6.40;1.00;;;;;;5021882;28;20170;-86
2023/02/09 12:03:16;;;;;;;17.43;12.37;;;6.40;1.00;;;;;;5038448;28;20182;-86
2023/02/09 12:05:44;;;;;;;20.23;13.07;;;6.50;1.00;;;;;;5040562;28;20193;-81
2023/02/09 12:08:39;;;;;;;16.90;12.53;;;6.60;1.00;;;;;;5037694;28;20178;-87
2023/02/09 12:11:10;;;;;;;15.47;12.20;;;6.60;1.00;;;;;;5019257;28;20159;-87
2023/02/09 12:14:10;;;;;;;15.77;11.33;;;6.70;1.00;;;;;;5024214;28;20202;-85
2023/02/09 12:16:44;;;;;;;18.37;12.73;;;6.90;1.00;;;;;;5031927;28;20193;-83
2023/02/09 12:19:34;;;;;;;19.57;12.40;;;7.30;1.00;;;;;;5031309;28;20178;-87
2023/02/09 12:22:37;;;;;;;17.80;13.10;;;7.50;1.00;;;;;;5028480;28;20178;-87
2023/02/09 12:25:29;;;;;;;19.97;13.13;;;7.30;1.00;;;;;;5028277;28;20178;-89
2023/02/09 12:28:16;;;;;;;19.73;13.00;;;7.30;1.00;;;;;;5032542;28;20170;-86
2023/02/09 12:30:42;;;;;;;17.77;12.60;;;7.40;1.00;;;;;;5038328;28;20206;-86
2023/02/09 12:33:21;;;;;;;16.80;12.93;;;7.50;1.00;;;;;;5038360;28;20209;-82
2023/02/09 12:36:07;;;;;;;17.87;13.90;;;7.40;1.00;;;;;;5037117;28;20174;-83
2023/02/09 12:38:56;;;;;;;21.20;13.63;;;7.50;1.00;;;;;;5023836;28;20193;-84
2023/02/09 12:41:32;;;;;;;17.50;14.00;;;7.80;1.00;;;;;;5023129;28;20178;-82
2023/02/09 12:44:19;;;;;;;17.63;13.70;;;7.70;1.00;;;;;;5017219;28;20627;-86
2023/02/09 12:46:53;;;;;;;23.30;13.43;;;7.60;1.00;;;;;;5017325;28;20194;-83
2023/02/09 12:49:28;;;;;;;18.80;14.70;;;7.60;1.00;;;;;;5016524;28;20619;-83
2023/02/09 12:51:59;;;;;;;22.47;14.63;;;7.40;1.00;;;;;;5048411;28;20177;-80
2023/02/09 12:54:46;;;;;;;22.17;15.30;;;7.60;1.00;;;;;;5032566;28;20236;-83
2023/02/09 12:57:14;;;;;;;23.40;17.30;;;7.50;1.00;;;;;;5020091;28;20178;-86
2023/02/09 13:00:04;;;;;;;22.40;15.30;;;7.40;1.00;;;;;;5020439;28;20257;-86
2023/02/09 13:02:50;;;;;;;25.67;17.90;;;7.30;1.00;;;;;;5017531;28;20196;-84
2023/02/09 13:05:36;;;;;;;22.20;15.00;;;7.20;1.00;;;;;;5020655;28;20162;-84
2023/02/09 13:08:10;;;;;;;22.07;15.93;;;7.30;1.00;;;;;;5038310;28;20230;-86
2023/02/09 13:10:40;;;;;;;20.33;14.57;;;7.40;1.00;;;;;;5056393;28;20178;-85
2023/02/09 13:13:09;;;;;;;24.40;15.70;;;7.50;1.00;;;;;;5041990;28;20201;-87
2023/02/09 13:16:04;;;;;;;22.10;15.43;;;7.50;1.00;;;;;;5035915;28;20185;-86
2023/02/09 13:18:56;;;;;;;20.60;15.70;;;7.60;1.00;;;;;;5016627;28;20189;-85
2023/02/09 13:21:46;;;;;;;22.37;15.03;;;7.60;1.00;;;;;;5025928;28;20228;-86
2023/02/09 13:24:17;;;;;;;19.80;15.07;;;7.50;1.00;;;;;;5016313;28;20174;-86